Hauptseite
METAR-TAF:

METAR-TAF

Flughäfen :

Flughafen Agen

Agen, Frankreich

Breite: 44-11N, Länge: 000-36E, Höhe: 61 m

Beobachtung

Neuester Wetterbericht von vor 44 Minuten, um 02:30 UTC
Wind 3 kt aus Ost
Temperatur 8°C
Luftfeuchtigkeit 100%
Luftdruck 1018 hPa
Sichtweite: 0600 m
Leicht bewölkt in der Höhe von 400 ft
Aufgelockert bewölkt in der Höhe von 22000 ft
Durchbrochene Bewölkung in der Höhe von 24000 ft
Nebel

METAR: LFBA 170230Z AUTO 09003KT 0650 0600 R29/0750D FG FEW004 SCT220 BKN240 08/08 Q1018

Zeit: 04:14 (03:14 UTC)

Prognose

Neuester Wetterbericht von vor 6 Stunden und 36 Minuten, um 20:38 UTC
Gültige Prognose vom 16 um 20 UTC bis 17 um 03 UTC
Wind 6 kt aus Ost/Südost
Sichtweite: 4000 m
feuchter Dunst
Übergehend zu
vom 16 um 21 UTC bis 16 um 23 UTC
Sichtweite: 0800 m
Nebel

TAF: LFBA 162038Z 1620/1703 11006KT 4000 BR NSC BECMG 1621/1623 0800 FG VV///

Wetterbeobachtungen und Prognosen von mehr als 4000 Flughäfen (METAR und TAF Bericht).

Die verfügbaren Stationen werden durch gelbe und rote Markierungen auf der Karte dargestellt.

Führen Sie die Maus auf sie, um den Namen der Station zu sehen.

Darauf klicken, um die Beobachtung von Wetterbeobachtungen und Prognosen zu sehen.

Um die Karte zu ändern : klicken Sie auf den grünen Tasten mit einem schwarzen Kreuz Zum Vergrößern, auf den grünen Button mit einem Gedankenstrich zu verkleinern, oder auf die grünen Pfeile für benachbarte Karten.


METAR-TAF: